sensor_id;sensor_type;location;lat;lon;timestamp;temperature;humidity
5930;DHT22;2990;48.746;9.236;2023-08-24T00:02:01;21.40;1.00
5930;DHT22;2990;48.746;9.236;2023-08-24T00:04:27;21.50;1.00
5930;DHT22;2990;48.746;9.236;2023-08-24T00:06:53;21.40;1.00
5930;DHT22;2990;48.746;9.236;2023-08-24T00:09:19;21.30;1.00
5930;DHT22;2990;48.746;9.236;2023-08-24T00:11:44;21.30;1.00
5930;DHT22;2990;48.746;9.236;2023-08-24T00:14:10;21.30;1.00
5930;DHT22;2990;48.746;9.236;2023-08-24T00:16:36;21.30;1.00
5930;DHT22;2990;48.746;9.236;2023-08-24T00:19:01;21.20;1.00
5930;DHT22;2990;48.746;9.236;2023-08-24T00:21:27;21.30;1.00
5930;DHT22;2990;48.746;9.236;2023-08-24T00:23:54;21.30;1.00
5930;DHT22;2990;48.746;9.236;2023-08-24T00:26:20;21.20;1.00
5930;DHT22;2990;48.746;9.236;2023-08-24T00:28:45;21.20;1.00
5930;DHT22;2990;48.746;9.236;2023-08-24T00:31:11;21.20;1.00
5930;DHT22;2990;48.746;9.236;2023-08-24T00:33:37;21.30;1.00
5930;DHT22;2990;48.746;9.236;2023-08-24T00:36:03;21.20;1.00
5930;DHT22;2990;48.746;9.236;2023-08-24T00:38:29;21.20;1.00
5930;DHT22;2990;48.746;9.236;2023-08-24T00:40:55;21.20;1.00
5930;DHT22;2990;48.746;9.236;2023-08-24T00:43:21;21.20;1.00
5930;DHT22;2990;48.746;9.236;2023-08-24T00:45:51;21.10;1.00
5930;DHT22;2990;48.746;9.236;2023-08-24T00:48:18;21.10;10.70
5930;DHT22;2990;48.746;9.236;2023-08-24T00:50:43;21.00;99.90
5930;DHT22;2990;48.746;9.236;2023-08-24T00:53:09;21.10;99.90
5930;DHT22;2990;48.746;9.236;2023-08-24T00:55:35;21.00;99.90
5930;DHT22;2990;48.746;9.236;2023-08-24T00:58:02;21.00;26.60
5930;DHT22;2990;48.746;9.236;2023-08-24T01:00:28;20.80;99.90
5930;DHT22;2990;48.746;9.236;2023-08-24T01:02:54;20.80;99.90
5930;DHT22;2990;48.746;9.236;2023-08-24T01:05:19;20.80;99.90
5930;DHT22;2990;48.746;9.236;2023-08-24T01:07:45;20.80;99.90
5930;DHT22;2990;48.746;9.236;2023-08-24T01:10:11;20.80;1.00
5930;DHT22;2990;48.746;9.236;2023-08-24T01:12:41;20.70;99.90
5930;DHT22;2990;48.746;9.236;2023-08-24T01:15:13;20.70;99.90
5930;DHT22;2990;48.746;9.236;2023-08-24T01:17:43;20.60;1.00
5930;DHT22;2990;48.746;9.236;2023-08-24T01:20:10;20.50;99.90
5930;DHT22;2990;48.746;9.236;2023-08-24T01:23:13;20.50;98.00
5930;DHT22;2990;48.746;9.236;2023-08-24T01:28:32;20.40;1.00
5930;DHT22;2990;48.746;9.236;2023-08-24T01:30:58;20.40;1.00
5930;DHT22;2990;48.746;9.236;2023-08-24T01:33:24;20.40;1.00
5930;DHT22;2990;48.746;9.236;2023-08-24T01:35:49;20.40;1.00
5930;DHT22;2990;48.746;9.236;2023-08-24T01:38:15;20.30;1.00
5930;DHT22;2990;48.746;9.236;2023-08-24T01:40:53;20.30;99.90
5930;DHT22;2990;48.746;9.236;2023-08-24T01:43:25;20.30;1.00
5930;DHT22;2990;48.746;9.236;2023-08-24T01:45:55;20.20;1.00
5930;DHT22;2990;48.746;9.236;2023-08-24T01:48:23;20.20;1.00
5930;DHT22;2990;48.746;9.236;2023-08-24T01:50:50;20.20;1.00
5930;DHT22;2990;48.746;9.236;2023-08-24T01:53:16;20.30;99.90
5930;DHT22;2990;48.746;9.236;2023-08-24T01:55:41;20.20;1.00
5930;DHT22;2990;48.746;9.236;2023-08-24T01:58:08;20.10;1.00
5930;DHT22;2990;48.746;9.236;2023-08-24T02:00:33;20.10;1.00
5930;DHT22;2990;48.746;9.236;2023-08-24T02:02:59;20.00;1.00
5930;DHT22;2990;48.746;9.236;2023-08-24T02:05:25;20.20;1.00
5930;DHT22;2990;48.746;9.236;2023-08-24T02:07:53;20.00;1.00
5930;DHT22;2990;48.746;9.236;2023-08-24T02:10:19;20.00;1.00
5930;DHT22;2990;48.746;9.236;2023-08-24T02:12:45;20.00;1.00
5930;DHT22;2990;48.746;9.236;2023-08-24T02:15:10;20.00;99.90
5930;DHT22;2990;48.746;9.236;2023-08-24T02:17:36;19.90;99.90
5930;DHT22;2990;48.746;9.236;2023-08-24T02:20:02;19.90;1.00
5930;DHT22;2990;48.746;9.236;2023-08-24T02:22:29;19.90;99.90
5930;DHT22;2990;48.746;9.236;2023-08-24T02:24:55;19.90;99.90
5930;DHT22;2990;48.746;9.236;2023-08-24T02:27:20;19.90;1.00
5930;DHT22;2990;48.746;9.236;2023-08-24T02:29:46;19.90;1.00
5930;DHT22;2990;48.746;9.236;2023-08-24T02:32:11;19.90;99.90
5930;DHT22;2990;48.746;9.236;2023-08-24T02:34:37;19.90;84.00
5930;DHT22;2990;48.746;9.236;2023-08-24T02:37:04;19.90;1.00
5930;DHT22;2990;48.746;9.236;2023-08-24T02:39:29;19.80;1.00
5930;DHT22;2990;48.746;9.236;2023-08-24T02:41:55;19.90;99.90
5930;DHT22;2990;48.746;9.236;2023-08-24T02:44:20;19.90;99.90
5930;DHT22;2990;48.746;9.236;2023-08-24T02:46:48;19.80;1.00
5930;DHT22;2990;48.746;9.236;2023-08-24T02:49:14;19.90;1.00
5930;DHT22;2990;48.746;9.236;2023-08-24T02:51:39;19.80;1.00
5930;DHT22;2990;48.746;9.236;2023-08-24T02:54:06;19.80;1.00
5930;DHT22;2990;48.746;9.236;2023-08-24T02:56:31;19.80;1.00
5930;DHT22;2990;48.746;9.236;2023-08-24T02:58:57;19.80;1.00
5930;DHT22;2990;48.746;9.236;2023-08-24T03:01:22;19.70;99.90
5930;DHT22;2990;48.746;9.236;2023-08-24T03:03:48;19.80;99.90
5930;DHT22;2990;48.746;9.236;2023-08-24T03:06:13;19.80;1.00
5930;DHT22;2990;48.746;9.236;2023-08-24T03:08:39;19.80;25.30
5930;DHT22;2990;48.746;9.236;2023-08-24T03:11:04;19.80;1.00
5930;DHT22;2990;48.746;9.236;2023-08-24T03:13:31;19.90;99.90
5930;DHT22;2990;48.746;9.236;2023-08-24T03:15:57;19.90;1.00
5930;DHT22;2990;48.746;9.236;2023-08-24T03:18:22;19.90;1.00
5930;DHT22;2990;48.746;9.236;2023-08-24T03:20:49;19.90;1.00
5930;DHT22;2990;48.746;9.236;2023-08-24T03:23:17;19.90;1.00
5930;DHT22;2990;48.746;9.236;2023-08-24T03:25:43;19.90;1.00
5930;DHT22;2990;48.746;9.236;2023-08-24T03:28:09;19.90;99.90
5930;DHT22;2990;48.746;9.236;2023-08-24T03:30:36;19.90;1.00
5930;DHT22;2990;48.746;9.236;2023-08-24T03:33:03;19.90;1.00
5930;DHT22;2990;48.746;9.236;2023-08-24T03:35:33;19.90;1.00
5930;DHT22;2990;48.746;9.236;2023-08-24T03:37:58;19.90;1.00
5930;DHT22;2990;48.746;9.236;2023-08-24T03:40:24;19.90;1.00
5930;DHT22;2990;48.746;9.236;2023-08-24T03:42:50;19.80;81.50
5930;DHT22;2990;48.746;9.236;2023-08-24T03:45:16;19.80;99.90
5930;DHT22;2990;48.746;9.236;2023-08-24T03:47:41;19.80;99.90
5930;DHT22;2990;48.746;9.236;2023-08-24T03:50:07;19.80;22.90
5930;DHT22;2990;48.746;9.236;2023-08-24T03:52:32;19.80;1.00
5930;DHT22;2990;48.746;9.236;2023-08-24T03:54:58;19.80;33.20
5930;DHT22;2990;48.746;9.236;2023-08-24T03:57:24;19.70;10.90
5930;DHT22;2990;48.746;9.236;2023-08-24T03:59:49;19.70;1.00
5930;DHT22;2990;48.746;9.236;2023-08-24T04:02:15;19.70;1.00
5930;DHT22;2990;48.746;9.236;2023-08-24T04:04:40;19.70;1.00
5930;DHT22;2990;48.746;9.236;2023-08-24T04:07:06;19.60;13.40
5930;DHT22;2990;48.746;9.236;2023-08-24T04:09:31;19.50;99.90
5930;DHT22;2990;48.746;9.236;2023-08-24T04:11:57;19.60;1.00
5930;DHT22;2990;48.746;9.236;2023-08-24T04:14:23;19.70;1.00
5930;DHT22;2990;48.746;9.236;2023-08-24T04:16:48;19.60;99.90
5930;DHT22;2990;48.746;9.236;2023-08-24T04:19:14;19.60;23.40
5930;DHT22;2990;48.746;9.236;2023-08-24T04:21:39;19.60;1.00
5930;DHT22;2990;48.746;9.236;2023-08-24T04:24:05;19.70;1.00
5930;DHT22;2990;48.746;9.236;2023-08-24T04:26:31;19.70;1.00
5930;DHT22;2990;48.746;9.236;2023-08-24T04:28:57;19.70;1.00
5930;DHT22;2990;48.746;9.236;2023-08-24T04:31:22;19.70;1.00
5930;DHT22;2990;48.746;9.236;2023-08-24T04:33:48;19.70;10.30
5930;DHT22;2990;48.746;9.236;2023-08-24T04:36:13;19.70;1.00
5930;DHT22;2990;48.746;9.236;2023-08-24T04:38:39;19.70;99.90
5930;DHT22;2990;48.746;9.236;2023-08-24T04:41:07;19.70;79.60
5930;DHT22;2990;48.746;9.236;2023-08-24T04:43:33;19.70;1.00
5930;DHT22;2990;48.746;9.236;2023-08-24T04:45:59;19.70;1.00
5930;DHT22;2990;48.746;9.236;2023-08-24T04:48:25;19.60;1.00
5930;DHT22;2990;48.746;9.236;2023-08-24T04:50:52;19.50;99.90
5930;DHT22;2990;48.746;9.236;2023-08-24T04:53:19;19.50;1.00
5930;DHT22;2990;48.746;9.236;2023-08-24T04:55:45;19.40;1.00
5930;DHT22;2990;48.746;9.236;2023-08-24T04:58:12;19.40;99.90
5930;DHT22;2990;48.746;9.236;2023-08-24T05:00:39;19.40;1.00
5930;DHT22;2990;48.746;9.236;2023-08-24T05:03:05;19.40;91.30
5930;DHT22;2990;48.746;9.236;2023-08-24T05:05:32;19.30;99.90
5930;DHT22;2990;48.746;9.236;2023-08-24T05:07:59;19.30;1.00
5930;DHT22;2990;48.746;9.236;2023-08-24T05:10:25;19.40;1.00
5930;DHT22;2990;48.746;9.236;2023-08-24T05:12:51;19.30;1.00
5930;DHT22;2990;48.746;9.236;2023-08-24T05:15:16;19.40;99.90
5930;DHT22;2990;48.746;9.236;2023-08-24T05:17:42;19.40;28.30
5930;DHT22;2990;48.746;9.236;2023-08-24T05:20:08;19.40;1.00
5930;DHT22;2990;48.746;9.236;2023-08-24T05:22:36;19.40;1.00
5930;DHT22;2990;48.746;9.236;2023-08-24T05:25:02;19.50;1.00
5930;DHT22;2990;48.746;9.236;2023-08-24T05:27:27;19.40;99.90
5930;DHT22;2990;48.746;9.236;2023-08-24T05:29:53;19.40;1.00
5930;DHT22;2990;48.746;9.236;2023-08-24T05:32:18;19.40;99.90
5930;DHT22;2990;48.746;9.236;2023-08-24T05:34:45;19.50;1.00
5930;DHT22;2990;48.746;9.236;2023-08-24T05:37:11;19.50;1.00
5930;DHT22;2990;48.746;9.236;2023-08-24T05:39:36;19.60;1.00
5930;DHT22;2990;48.746;9.236;2023-08-24T05:42:02;19.60;1.00
5930;DHT22;2990;48.746;9.236;2023-08-24T05:44:27;19.70;1.00
5930;DHT22;2990;48.746;9.236;2023-08-24T05:46:53;19.70;1.00
5930;DHT22;2990;48.746;9.236;2023-08-24T05:49:19;19.80;1.00
5930;DHT22;2990;48.746;9.236;2023-08-24T05:51:44;19.90;99.90
5930;DHT22;2990;48.746;9.236;2023-08-24T05:54:10;19.90;1.00
5930;DHT22;2990;48.746;9.236;2023-08-24T05:56:35;20.00;1.00
5930;DHT22;2990;48.746;9.236;2023-08-24T05:59:01;20.00;99.90
5930;DHT22;2990;48.746;9.236;2023-08-24T06:01:26;20.20;1.00
5930;DHT22;2990;48.746;9.236;2023-08-24T06:03:52;20.10;1.00
5930;DHT22;2990;48.746;9.236;2023-08-24T06:06:17;20.20;99.90
5930;DHT22;2990;48.746;9.236;2023-08-24T06:08:43;20.30;99.90
5930;DHT22;2990;48.746;9.236;2023-08-24T06:11:09;20.30;99.90
5930;DHT22;2990;48.746;9.236;2023-08-24T06:13:35;20.40;27.90
5930;DHT22;2990;48.746;9.236;2023-08-24T06:16:00;20.40;1.00
5930;DHT22;2990;48.746;9.236;2023-08-24T06:18:27;20.50;1.00
5930;DHT22;2990;48.746;9.236;2023-08-24T06:20:53;20.60;99.90
5930;DHT22;2990;48.746;9.236;2023-08-24T06:23:19;20.70;41.40
5930;DHT22;2990;48.746;9.236;2023-08-24T06:25:45;20.90;1.00
5930;DHT22;2990;48.746;9.236;2023-08-24T06:28:11;20.80;99.90
5930;DHT22;2990;48.746;9.236;2023-08-24T06:30:41;20.80;1.00
5930;DHT22;2990;48.746;9.236;2023-08-24T06:33:08;20.90;1.00
5930;DHT22;2990;48.746;9.236;2023-08-24T06:35:34;20.90;1.00
5930;DHT22;2990;48.746;9.236;2023-08-24T06:38:00;20.90;1.00
5930;DHT22;2990;48.746;9.236;2023-08-24T06:40:26;21.00;1.00
5930;DHT22;2990;48.746;9.236;2023-08-24T06:42:52;21.00;1.00
5930;DHT22;2990;48.746;9.236;2023-08-24T06:45:17;21.10;47.80
5930;DHT22;2990;48.746;9.236;2023-08-24T06:47:46;21.00;17.80
5930;DHT22;2990;48.746;9.236;2023-08-24T06:50:11;21.00;99.90
5930;DHT22;2990;48.746;9.236;2023-08-24T06:52:37;21.00;75.30
5930;DHT22;2990;48.746;9.236;2023-08-24T06:55:03;21.00;1.00
5930;DHT22;2990;48.746;9.236;2023-08-24T06:57:29;21.10;99.90
5930;DHT22;2990;48.746;9.236;2023-08-24T06:59:54;21.10;1.00
5930;DHT22;2990;48.746;9.236;2023-08-24T07:02:20;21.10;99.90
5930;DHT22;2990;48.746;9.236;2023-08-24T07:04:46;21.20;1.00
5930;DHT22;2990;48.746;9.236;2023-08-24T07:07:11;21.20;99.90
5930;DHT22;2990;48.746;9.236;2023-08-24T07:09:37;21.20;99.90
5930;DHT22;2990;48.746;9.236;2023-08-24T07:12:03;21.20;1.00
5930;DHT22;2990;48.746;9.236;2023-08-24T07:14:32;21.20;99.90
5930;DHT22;2990;48.746;9.236;2023-08-24T07:16:57;21.30;1.00
5930;DHT22;2990;48.746;9.236;2023-08-24T07:19:23;21.30;1.00
5930;DHT22;2990;48.746;9.236;2023-08-24T07:21:48;21.20;1.00
5930;DHT22;2990;48.746;9.236;2023-08-24T07:24:14;21.30;99.90
5930;DHT22;2990;48.746;9.236;2023-08-24T07:26:40;21.40;14.20
5930;DHT22;2990;48.746;9.236;2023-08-24T07:29:07;21.50;1.00
5930;DHT22;2990;48.746;9.236;2023-08-24T07:31:33;21.50;1.00
5930;DHT22;2990;48.746;9.236;2023-08-24T07:33:58;21.50;1.00
5930;DHT22;2990;48.746;9.236;2023-08-24T07:36:24;21.50;1.00
5930;DHT22;2990;48.746;9.236;2023-08-24T07:38:50;21.70;99.90
5930;DHT22;2990;48.746;9.236;2023-08-24T07:41:15;21.80;99.90
5930;DHT22;2990;48.746;9.236;2023-08-24T07:43:43;21.70;1.00
5930;DHT22;2990;48.746;9.236;2023-08-24T07:46:09;21.70;1.00
5930;DHT22;2990;48.746;9.236;2023-08-24T07:48:35;21.80;1.00
5930;DHT22;2990;48.746;9.236;2023-08-24T07:51:01;21.80;15.10
5930;DHT22;2990;48.746;9.236;2023-08-24T07:53:26;22.00;1.00
5930;DHT22;2990;48.746;9.236;2023-08-24T07:55:53;22.10;27.80
5930;DHT22;2990;48.746;9.236;2023-08-24T07:58:19;22.30;1.00
5930;DHT22;2990;48.746;9.236;2023-08-24T08:00:44;22.40;1.00
5930;DHT22;2990;48.746;9.236;2023-08-24T08:03:10;22.60;1.00
5930;DHT22;2990;48.746;9.236;2023-08-24T08:05:36;22.80;99.90
5930;DHT22;2990;48.746;9.236;2023-08-24T08:08:02;23.00;1.00
5930;DHT22;2990;48.746;9.236;2023-08-24T08:10:30;23.20;1.00
5930;DHT22;2990;48.746;9.236;2023-08-24T08:12:55;23.20;99.90
5930;DHT22;2990;48.746;9.236;2023-08-24T08:15:21;23.50;99.90
5930;DHT22;2990;48.746;9.236;2023-08-24T08:17:46;23.60;99.90
5930;DHT22;2990;48.746;9.236;2023-08-24T08:20:14;23.60;67.60
5930;DHT22;2990;48.746;9.236;2023-08-24T08:22:39;23.60;99.90
5930;DHT22;2990;48.746;9.236;2023-08-24T08:25:06;23.60;99.90
5930;DHT22;2990;48.746;9.236;2023-08-24T08:27:31;23.60;24.60
5930;DHT22;2990;48.746;9.236;2023-08-24T08:29:58;23.80;20.50
5930;DHT22;2990;48.746;9.236;2023-08-24T08:32:24;24.00;1.00
5930;DHT22;2990;48.746;9.236;2023-08-24T08:34:54;24.20;1.00
5930;DHT22;2990;48.746;9.236;2023-08-24T08:37:21;24.30;1.00
5930;DHT22;2990;48.746;9.236;2023-08-24T08:39:47;24.60;1.00
5930;DHT22;2990;48.746;9.236;2023-08-24T08:42:14;24.80;1.00
5930;DHT22;2990;48.746;9.236;2023-08-24T08:44:41;24.80;1.00
5930;DHT22;2990;48.746;9.236;2023-08-24T08:47:08;25.10;1.00
5930;DHT22;2990;48.746;9.236;2023-08-24T08:49:35;25.30;1.00
5930;DHT22;2990;48.746;9.236;2023-08-24T08:52:02;25.50;1.00
5930;DHT22;2990;48.746;9.236;2023-08-24T08:54:29;25.60;99.90
5930;DHT22;2990;48.746;9.236;2023-08-24T08:56:54;25.60;99.90
5930;DHT22;2990;48.746;9.236;2023-08-24T08:59:21;25.80;99.90
5930;DHT22;2990;48.746;9.236;2023-08-24T09:01:48;25.90;99.90
5930;DHT22;2990;48.746;9.236;2023-08-24T09:04:16;26.00;99.90
5930;DHT22;2990;48.746;9.236;2023-08-24T09:06:42;26.10;99.90
5930;DHT22;2990;48.746;9.236;2023-08-24T09:09:08;26.30;99.90
5930;DHT22;2990;48.746;9.236;2023-08-24T09:11:34;26.20;99.90
5930;DHT22;2990;48.746;9.236;2023-08-24T09:16:29;26.40;99.90
5930;DHT22;2990;48.746;9.236;2023-08-24T09:18:55;26.70;99.90
5930;DHT22;2990;48.746;9.236;2023-08-24T09:21:20;26.90;99.90
5930;DHT22;2990;48.746;9.236;2023-08-24T09:23:55;26.90;99.90
5930;DHT22;2990;48.746;9.236;2023-08-24T09:26:31;27.00;99.90
5930;DHT22;2990;48.746;9.236;2023-08-24T09:28:58;27.10;99.90
5930;DHT22;2990;48.746;9.236;2023-08-24T09:31:35;27.30;99.90
5930;DHT22;2990;48.746;9.236;2023-08-24T09:34:02;27.40;99.90
5930;DHT22;2990;48.746;9.236;2023-08-24T09:36:32;27.60;99.90
5930;DHT22;2990;48.746;9.236;2023-08-24T09:38:59;27.80;99.90
5930;DHT22;2990;48.746;9.236;2023-08-24T09:41:40;27.90;99.90
5930;DHT22;2990;48.746;9.236;2023-08-24T09:44:06;27.90;99.90
5930;DHT22;2990;48.746;9.236;2023-08-24T09:46:32;28.00;99.90
5930;DHT22;2990;48.746;9.236;2023-08-24T09:48:57;28.10;99.90
5930;DHT22;2990;48.746;9.236;2023-08-24T09:51:26;28.10;99.90
5930;DHT22;2990;48.746;9.236;2023-08-24T09:53:57;28.20;99.90
5930;DHT22;2990;48.746;9.236;2023-08-24T09:56:28;28.30;99.90
5930;DHT22;2990;48.746;9.236;2023-08-24T09:58:55;28.60;98.80
5930;DHT22;2990;48.746;9.236;2023-08-24T10:01:23;28.60;92.60
5930;DHT22;2990;48.746;9.236;2023-08-24T10:03:51;28.80;87.30
5930;DHT22;2990;48.746;9.236;2023-08-24T10:06:27;28.80;93.10
5930;DHT22;2990;48.746;9.236;2023-08-24T10:08:57;28.90;79.80
5930;DHT22;2990;48.746;9.236;2023-08-24T10:11:28;28.90;71.10
5930;DHT22;2990;48.746;9.236;2023-08-24T10:14:10;28.90;71.60
5930;DHT22;2990;48.746;9.236;2023-08-24T10:16:37;29.10;67.40
5930;DHT22;2990;48.746;9.236;2023-08-24T10:19:04;29.20;63.50
5930;DHT22;2990;48.746;9.236;2023-08-24T10:21:31;29.30;63.10
5930;DHT22;2990;48.746;9.236;2023-08-24T10:23:57;29.20;61.10
5930;DHT22;2990;48.746;9.236;2023-08-24T10:28:50;29.30;63.80
5930;DHT22;2990;48.746;9.236;2023-08-24T10:31:16;29.60;56.00
5930;DHT22;2990;48.746;9.236;2023-08-24T10:33:42;29.70;46.90
5930;DHT22;2990;48.746;9.236;2023-08-24T10:36:09;29.70;52.30
5930;DHT22;2990;48.746;9.236;2023-08-24T10:38:40;29.60;56.50
5930;DHT22;2990;48.746;9.236;2023-08-24T10:41:09;29.80;54.30
5930;DHT22;2990;48.746;9.236;2023-08-24T10:43:40;30.10;54.70
5930;DHT22;2990;48.746;9.236;2023-08-24T10:46:13;30.30;38.70
5930;DHT22;2990;48.746;9.236;2023-08-24T10:53:59;30.80;42.20
5930;DHT22;2990;48.746;9.236;2023-08-24T10:56:39;31.10;21.90
5930;DHT22;2990;48.746;9.236;2023-08-24T10:59:15;31.10;17.30
5930;DHT22;2990;48.746;9.236;2023-08-24T11:06:49;31.10;10.20
5930;DHT22;2990;48.746;9.236;2023-08-24T11:09:16;31.40;18.00
5930;DHT22;2990;48.746;9.236;2023-08-24T11:11:42;31.60;6.70
5930;DHT22;2990;48.746;9.236;2023-08-24T11:14:20;31.70;5.60
5930;DHT22;2990;48.746;9.236;2023-08-24T11:16:51;31.80;7.90
5930;DHT22;2990;48.746;9.236;2023-08-24T11:19:18;31.90;2.70
5930;DHT22;2990;48.746;9.236;2023-08-24T11:21:45;32.00;1.00
5930;DHT22;2990;48.746;9.236;2023-08-24T11:24:14;32.00;1.00
5930;DHT22;2990;48.746;9.236;2023-08-24T11:26:44;32.10;1.00
5930;DHT22;2990;48.746;9.236;2023-08-24T11:29:10;32.20;1.00
5930;DHT22;2990;48.746;9.236;2023-08-24T11:31:37;32.30;1.00
5930;DHT22;2990;48.746;9.236;2023-08-24T11:34:03;32.40;1.00
5930;DHT22;2990;48.746;9.236;2023-08-24T11:39:28;32.50;1.00
5930;DHT22;2990;48.746;9.236;2023-08-24T11:41:57;32.50;1.00
5930;DHT22;2990;48.746;9.236;2023-08-24T11:44:23;32.50;1.00
5930;DHT22;2990;48.746;9.236;2023-08-24T11:46:49;32.60;1.00
5930;DHT22;2990;48.746;9.236;2023-08-24T11:49:15;32.70;1.00
5930;DHT22;2990;48.746;9.236;2023-08-24T11:51:40;32.70;1.00
5930;DHT22;2990;48.746;9.236;2023-08-24T11:54:06;32.60;1.00
5930;DHT22;2990;48.746;9.236;2023-08-24T11:56:32;32.70;1.00
5930;DHT22;2990;48.746;9.236;2023-08-24T11:58:57;32.80;1.00
5930;DHT22;2990;48.746;9.236;2023-08-24T12:01:23;32.90;1.00
5930;DHT22;2990;48.746;9.236;2023-08-24T12:03:50;32.90;1.00
5930;DHT22;2990;48.746;9.236;2023-08-24T12:06:17;32.90;1.00
5930;DHT22;2990;48.746;9.236;2023-08-24T12:08:46;32.80;1.00
5930;DHT22;2990;48.746;9.236;2023-08-24T12:11:17;32.80;1.00
5930;DHT22;2990;48.746;9.236;2023-08-24T12:13:43;32.90;1.00
5930;DHT22;2990;48.746;9.236;2023-08-24T12:16:10;33.10;11.60
5930;DHT22;2990;48.746;9.236;2023-08-24T12:18:47;33.10;1.00
5930;DHT22;2990;48.746;9.236;2023-08-24T12:21:12;33.00;1.00
5930;DHT22;2990;48.746;9.236;2023-08-24T12:23:38;32.90;1.00
5930;DHT22;2990;48.746;9.236;2023-08-24T12:26:04;32.80;1.00
5930;DHT22;2990;48.746;9.236;2023-08-24T12:28:33;32.80;1.00
5930;DHT22;2990;48.746;9.236;2023-08-24T12:30:58;32.80;1.00
5930;DHT22;2990;48.746;9.236;2023-08-24T12:33:29;32.80;1.00
5930;DHT22;2990;48.746;9.236;2023-08-24T12:35:55;32.90;1.00
5930;DHT22;2990;48.746;9.236;2023-08-24T12:38:22;33.00;1.00
5930;DHT22;2990;48.746;9.236;2023-08-24T12:40:49;33.20;1.00
5930;DHT22;2990;48.746;9.236;2023-08-24T12:43:14;33.40;1.00
5930;DHT22;2990;48.746;9.236;2023-08-24T12:45:40;33.50;1.00
5930;DHT22;2990;48.746;9.236;2023-08-24T12:48:06;33.50;1.00
5930;DHT22;2990;48.746;9.236;2023-08-24T12:50:33;33.40;1.00
5930;DHT22;2990;48.746;9.236;2023-08-24T12:52:58;33.50;1.00
5930;DHT22;2990;48.746;9.236;2023-08-24T12:55:28;33.40;1.00
5930;DHT22;2990;48.746;9.236;2023-08-24T12:57:54;33.40;1.00
5930;DHT22;2990;48.746;9.236;2023-08-24T13:00:20;33.60;1.00
5930;DHT22;2990;48.746;9.236;2023-08-24T13:02:45;33.70;1.00
5930;DHT22;2990;48.746;9.236;2023-08-24T13:07:38;33.80;1.00
5930;DHT22;2990;48.746;9.236;2023-08-24T13:10:04;34.00;1.00
5930;DHT22;2990;48.746;9.236;2023-08-24T13:12:30;34.00;1.00
5930;DHT22;2990;48.746;9.236;2023-08-24T13:14:55;34.00;1.00
5930;DHT22;2990;48.746;9.236;2023-08-24T13:17:21;34.00;1.00
5930;DHT22;2990;48.746;9.236;2023-08-24T13:19:47;34.00;1.00
5930;DHT22;2990;48.746;9.236;2023-08-24T13:22:14;33.90;1.00
5930;DHT22;2990;48.746;9.236;2023-08-24T13:24:41;33.80;1.00
5930;DHT22;2990;48.746;9.236;2023-08-24T13:27:09;33.80;1.00
5930;DHT22;2990;48.746;9.236;2023-08-24T13:29:36;33.80;1.00
5930;DHT22;2990;48.746;9.236;2023-08-24T13:32:03;33.90;1.00
5930;DHT22;2990;48.746;9.236;2023-08-24T13:34:28;34.00;1.00
5930;DHT22;2990;48.746;9.236;2023-08-24T13:36:54;34.10;1.00
5930;DHT22;2990;48.746;9.236;2023-08-24T13:39:19;34.20;1.00
5930;DHT22;2990;48.746;9.236;2023-08-24T13:41:45;34.20;1.00
5930;DHT22;2990;48.746;9.236;2023-08-24T13:44:10;34.10;1.00
5930;DHT22;2990;48.746;9.236;2023-08-24T13:46:36;34.00;1.00
5930;DHT22;2990;48.746;9.236;2023-08-24T13:49:02;33.90;1.00
5930;DHT22;2990;48.746;9.236;2023-08-24T13:51:28;33.70;1.00
5930;DHT22;2990;48.746;9.236;2023-08-24T13:53:53;33.60;1.00
5930;DHT22;2990;48.746;9.236;2023-08-24T13:56:19;33.30;1.00
5930;DHT22;2990;48.746;9.236;2023-08-24T13:58:45;33.40;1.00
5930;DHT22;2990;48.746;9.236;2023-08-24T14:01:12;33.60;1.00
5930;DHT22;2990;48.746;9.236;2023-08-24T14:03:38;33.90;1.00
5930;DHT22;2990;48.746;9.236;2023-08-24T14:06:05;34.10;1.00
5930;DHT22;2990;48.746;9.236;2023-08-24T14:08:30;34.10;1.00
5930;DHT22;2990;48.746;9.236;2023-08-24T14:10:56;34.20;1.00
5930;DHT22;2990;48.746;9.236;2023-08-24T14:13:21;34.10;1.00
5930;DHT22;2990;48.746;9.236;2023-08-24T14:15:49;34.10;1.00
5930;DHT22;2990;48.746;9.236;2023-08-24T14:18:18;34.00;1.00
5930;DHT22;2990;48.746;9.236;2023-08-24T14:20:44;33.80;1.00
5930;DHT22;2990;48.746;9.236;2023-08-24T14:23:09;33.70;1.00
5930;DHT22;2990;48.746;9.236;2023-08-24T14:25:35;33.60;1.00
5930;DHT22;2990;48.746;9.236;2023-08-24T14:28:00;33.40;1.00
5930;DHT22;2990;48.746;9.236;2023-08-24T14:30:26;33.30;1.00
5930;DHT22;2990;48.746;9.236;2023-08-24T14:32:51;33.20;1.00
5930;DHT22;2990;48.746;9.236;2023-08-24T14:35:17;33.10;1.00
5930;DHT22;2990;48.746;9.236;2023-08-24T14:37:43;33.00;1.00
5930;DHT22;2990;48.746;9.236;2023-08-24T14:40:08;32.80;1.00
5930;DHT22;2990;48.746;9.236;2023-08-24T14:42:35;32.80;1.00
5930;DHT22;2990;48.746;9.236;2023-08-24T14:45:01;32.70;1.00
5930;DHT22;2990;48.746;9.236;2023-08-24T14:47:26;32.70;1.00
5930;DHT22;2990;48.746;9.236;2023-08-24T14:49:52;32.60;1.00
5930;DHT22;2990;48.746;9.236;2023-08-24T14:52:17;32.50;1.00
5930;DHT22;2990;48.746;9.236;2023-08-24T14:54:43;32.50;1.00
5930;DHT22;2990;48.746;9.236;2023-08-24T14:57:08;32.40;1.00
5930;DHT22;2990;48.746;9.236;2023-08-24T14:59:34;32.40;1.00
5930;DHT22;2990;48.746;9.236;2023-08-24T15:02:00;32.40;1.00
5930;DHT22;2990;48.746;9.236;2023-08-24T15:04:26;32.30;1.00
5930;DHT22;2990;48.746;9.236;2023-08-24T15:06:52;32.30;1.00
5930;DHT22;2990;48.746;9.236;2023-08-24T15:09:18;31.80;1.00
5930;DHT22;2990;48.746;9.236;2023-08-24T15:11:43;31.20;1.00
5930;DHT22;2990;48.746;9.236;2023-08-24T15:14:09;30.70;1.00
5930;DHT22;2990;48.746;9.236;2023-08-24T15:16:34;30.30;1.00
5930;DHT22;2990;48.746;9.236;2023-08-24T15:19:00;29.70;3.70
5930;DHT22;2990;48.746;9.236;2023-08-24T15:21:26;28.80;38.20
5930;DHT22;2990;48.746;9.236;2023-08-24T15:23:53;27.90;99.90
5930;DHT22;2990;48.746;9.236;2023-08-24T15:26:18;27.20;99.90
5930;DHT22;2990;48.746;9.236;2023-08-24T15:29:07;26.80;99.90
5930;DHT22;2990;48.746;9.236;2023-08-24T15:31:33;26.40;1.00
5930;DHT22;2990;48.746;9.236;2023-08-24T15:33:59;26.30;1.00
5930;DHT22;2990;48.746;9.236;2023-08-24T15:36:25;26.20;1.00
5930;DHT22;2990;48.746;9.236;2023-08-24T15:38:50;26.20;99.90
5930;DHT22;2990;48.746;9.236;2023-08-24T15:41:16;26.10;99.90
5930;DHT22;2990;48.746;9.236;2023-08-24T15:43:41;26.10;1.00
5930;DHT22;2990;48.746;9.236;2023-08-24T15:46:07;26.10;1.00
5930;DHT22;2990;48.746;9.236;2023-08-24T15:48:32;26.00;1.00
5930;DHT22;2990;48.746;9.236;2023-08-24T15:50:58;26.00;1.00
5930;DHT22;2990;48.746;9.236;2023-08-24T15:53:24;25.70;99.90
5930;DHT22;2990;48.746;9.236;2023-08-24T15:55:50;25.70;1.00
5930;DHT22;2990;48.746;9.236;2023-08-24T15:58:16;25.60;99.90
5930;DHT22;2990;48.746;9.236;2023-08-24T16:00:42;25.30;1.00
5930;DHT22;2990;48.746;9.236;2023-08-24T16:03:07;25.20;1.00
5930;DHT22;2990;48.746;9.236;2023-08-24T16:05:33;25.10;99.90
5930;DHT22;2990;48.746;9.236;2023-08-24T16:07:59;24.90;99.90
5930;DHT22;2990;48.746;9.236;2023-08-24T16:10:25;24.80;99.90
5930;DHT22;2990;48.746;9.236;2023-08-24T16:12:50;24.80;1.00
5930;DHT22;2990;48.746;9.236;2023-08-24T16:15:16;24.80;99.90
5930;DHT22;2990;48.746;9.236;2023-08-24T16:17:42;24.80;99.90
5930;DHT22;2990;48.746;9.236;2023-08-24T16:20:08;25.00;99.90
5930;DHT22;2990;48.746;9.236;2023-08-24T16:22:35;24.90;1.00
5930;DHT22;2990;48.746;9.236;2023-08-24T16:25:01;24.80;1.00
5930;DHT22;2990;48.746;9.236;2023-08-24T16:27:26;24.80;1.00
5930;DHT22;2990;48.746;9.236;2023-08-24T16:29:52;24.90;1.00
5930;DHT22;2990;48.746;9.236;2023-08-24T16:32:17;24.80;1.00